Time;durP1;ratioP1;P1;durP2;ratioP2;P2;SDS_P1;SDS_P2;PMS_P1;PMS_P2;Temp;Humidity;BMP_temperature;BMP_pressure;BME280_temperature;BME280_humidity;BME280_pressure;Samples;Min_cycle;Max_cycle;Signal;HPM_P1;HPM_P2
2024/03/01 00:00:54;;;;;;;;;0.33;0.33;;;;;14.34;100.00;99981.91;2097539;28;46973;-53
2024/03/01 00:01:54;;;;;;;;;0.00;0.00;;;;;14.33;100.00;99990.84;2099083;28;46194;-52
2024/03/01 00:02:55;;;;;;;;;1.00;1.00;;;;;14.34;100.00;99981.91;2098034;28;46371;-54
2024/03/01 00:03:55;;;;;;;;;2.00;2.00;;;;;14.34;100.00;99995.25;2098072;28;46879;-52
2024/03/01 00:04:56;;;;;;;;;2.00;2.00;;;;;14.34;100.00;99989.03;2097943;28;46649;-52
2024/03/01 00:05:56;;;;;;;;;1.00;1.00;;;;;14.36;100.00;99993.41;2098593;28;47018;-53
2024/03/01 00:06:56;;;;;;;;;2.00;2.00;;;;;14.37;100.00;99989.78;2097469;28;46049;-56
2024/03/01 00:07:57;;;;;;;;;1.67;1.67;;;;;14.36;100.00;99993.41;2098396;28;46376;-53
2024/03/01 00:08:58;;;;;;;;;1.33;1.33;;;;;14.36;100.00;99996.06;2098544;28;46468;-55
2024/03/01 00:09:58;;;;;;;;;1.75;1.75;;;;;14.37;100.00;100000.47;2097516;28;46284;-52
2024/03/01 00:10:59;;;;;;;;;2.33;2.33;;;;;14.37;100.00;99992.47;2097752;28;46111;-53
2024/03/01 00:11:59;;;;;;;;;4.67;4.00;;;;;14.35;100.00;99998.78;2108017;27;46790;-54
2024/03/01 00:12:59;;;;;;;;;2.00;2.00;;;;;14.35;100.00;99994.31;2105168;27;46588;-54
2024/03/01 00:14:00;;;;;;;;;3.00;3.00;;;;;14.36;100.00;99997.88;2107069;27;46629;-55
2024/03/01 00:15:00;;;;;;;;;2.00;2.00;;;;;14.36;100.00;99997.88;2107075;27;46428;-57
2024/03/01 00:16:01;;;;;;;;;3.00;3.00;;;;;14.34;100.00;100008.59;2107034;27;46224;-52
2024/03/01 00:17:02;;;;;;;;;1.67;1.67;;;;;14.29;100.00;100009.78;2107544;27;46245;-50
2024/03/01 00:18:02;;;;;;;;;5.00;4.00;;;;;14.21;100.00;100018.13;2107974;27;46771;-51
2024/03/01 00:19:03;;;;;;;;;3.00;3.00;;;;;14.28;100.00;100011.56;2107170;27;46538;-52
2024/03/01 00:20:04;;;;;;;;;4.00;3.67;;;;;14.29;100.00;100017.78;2107214;27;46491;-52
2024/03/01 00:21:05;;;;;;;;;3.00;3.00;;;;;14.30;100.00;100012.38;2104057;27;46661;-52
2024/03/01 00:22:05;;;;;;;;;3.00;3.00;;;;;14.30;100.00;100023.03;2107402;27;46895;-52
2024/03/01 00:23:06;;;;;;;;;5.00;3.67;;;;;14.31;100.00;100023.91;2107241;27;46332;-54
2024/03/01 00:24:07;;;;;;;;;3.67;3.67;;;;;14.29;100.00;100020.44;2103858;27;46226;-55
2024/03/01 00:25:08;;;;;;;;;5.00;5.00;;;;;14.31;100.00;100026.56;2105199;27;46834;-55
2024/03/01 00:26:08;;;;;;;;;4.67;4.67;;;;;14.30;100.00;100033.72;2107728;27;46463;-52
2024/03/01 00:27:09;;;;;;;;;3.00;2.00;;;;;14.31;100.00;100030.09;2108311;27;46800;-54
2024/03/01 00:28:09;;;;;;;;;3.00;3.00;;;;;14.30;100.00;100028.38;2106899;27;46692;-52
2024/03/01 00:29:11;;;;;;;;;3.33;3.00;;;;;14.39;100.00;100030.59;2106776;27;46672;-52
2024/03/01 00:30:11;;;;;;;;;3.00;3.00;;;;;14.36;100.00;100021.91;2106953;27;46797;-55
2024/03/01 00:31:12;;;;;;;;;3.67;3.67;;;;;14.39;100.00;100022.59;2095701;28;46421;-54
2024/03/01 00:32:12;;;;;;;;;2.67;2.67;;;;;14.39;100.00;100030.59;2096048;28;46429;-56
2024/03/01 00:33:13;;;;;;;;;4.00;4.00;;;;;14.38;100.00;100023.53;2106821;27;46579;-51
2024/03/01 00:34:13;;;;;;;;;3.00;3.00;;;;;14.30;100.00;100028.38;2107013;27;46518;-55
2024/03/01 00:35:13;;;;;;;;;4.00;3.00;;;;;14.38;100.00;100034.22;2106555;27;46405;-54
2024/03/01 00:36:14;;;;;;;;;2.00;2.00;;;;;14.32;100.00;100042.50;2107327;27;46795;-53
2024/03/01 00:37:14;;;;;;;;;3.67;3.00;;;;;14.31;100.00;100042.59;2106794;27;46939;-52
2024/03/01 00:38:14;;;;;;;;;2.33;2.33;;;;;14.24;100.00;100027.81;2106989;27;46497;-55
2024/03/01 00:39:14;;;;;;;;;3.00;3.00;;;;;14.28;100.00;100040.06;2108323;27;45727;-55
2024/03/01 00:40:15;;;;;;;;;4.00;4.00;;;;;14.28;100.00;100038.25;2107041;27;46034;-55
2024/03/01 00:41:16;;;;;;;;;3.00;3.00;;;;;14.28;100.00;100040.06;2107451;27;46448;-53
2024/03/01 00:42:16;;;;;;;;;2.67;2.67;;;;;14.24;100.00;100031.34;2107485;27;47078;-51
2024/03/01 00:43:16;;;;;;;;;3.67;2.67;;;;;14.24;100.00;100038.50;2107622;27;46308;-54
2024/03/01 00:44:16;;;;;;;;;3.00;2.00;;;;;14.23;100.00;100036.72;2107027;27;46196;-50
2024/03/01 00:45:17;;;;;;;;;3.00;3.00;;;;;14.24;100.00;100035.81;2105945;27;46929;-55
2024/03/01 00:46:17;;;;;;;;;4.33;3.00;;;;;14.25;100.00;100034.88;2104691;27;46404;-54
2024/03/01 00:47:18;;;;;;;;;3.00;3.00;;;;;14.23;100.00;100042.97;2098229;28;45114;-53
2024/03/01 00:48:19;;;;;;;;;2.00;2.00;;;;;14.23;100.00;100042.06;2097732;28;46924;-55
2024/03/01 00:49:19;;;;;;;;;4.67;2.33;;;;;14.23;100.00;100042.97;2106223;27;46608;-55
2024/03/01 00:50:20;;;;;;;;;2.00;2.00;;;;;14.23;100.00;100039.41;2107504;27;46168;-54
2024/03/01 00:51:20;;;;;;;;;2.33;2.33;;;;;14.23;100.00;100042.97;2106586;27;46827;-55
2024/03/01 00:52:21;;;;;;;;;3.33;3.00;;;;;14.21;100.00;100039.47;2105282;27;46336;-54
2024/03/01 00:53:21;;;;;;;;;5.00;2.00;;;;;14.23;100.00;100042.97;2093709;28;46331;-54
2024/03/01 00:54:21;;;;;;;;;2.00;2.00;;;;;14.22;100.00;100041.22;2096218;28;46905;-54
2024/03/01 00:55:22;;;;;;;;;2.67;2.67;;;;;14.22;100.00;100041.22;2106593;27;46597;-55
2024/03/01 00:56:22;;;;;;;;;3.00;3.00;;;;;14.21;100.00;100038.63;2107292;27;46422;-55
2024/03/01 00:57:22;;;;;;;;;2.00;2.00;;;;;14.21;100.00;100038.63;2107174;27;46396;-55
2024/03/01 00:58:22;;;;;;;;;2.33;2.33;;;;;14.20;100.00;100037.75;2105339;27;45835;-54
2024/03/01 00:59:23;;;;;;;;;2.00;2.00;;;;;14.19;100.00;100038.69;2106629;27;45981;-52
2024/03/01 01:00:23;;;;;;;;;1.00;1.00;;;;;14.18;100.00;100033.44;2107794;27;46330;-54
2024/03/01 01:01:24;;;;;;;;;2.00;2.00;;;;;14.17;100.00;100031.69;2105537;27;46745;-54
2024/03/01 01:02:24;;;;;;;;;2.33;2.00;;;;;14.17;100.00;100037.03;2105069;27;46204;-55
2024/03/01 01:03:24;;;;;;;;;0.67;0.67;;;;;14.16;100.00;100035.31;2107888;27;46332;-54
2024/03/01 01:04:25;;;;;;;;;3.00;3.00;;;;;14.13;100.00;100041.66;2105920;27;46451;-50
2024/03/01 01:05:25;;;;;;;;;1.00;1.00;;;;;14.13;100.00;100033.66;2103043;27;45560;-52
2024/03/01 01:06:26;;;;;;;;;3.67;3.67;;;;;14.12;100.00;100032.78;2107304;27;45068;-53
2024/03/01 01:07:26;;;;;;;;;2.00;2.00;;;;;14.13;100.00;100044.34;2104806;27;46958;-54
2024/03/01 01:08:27;;;;;;;;;1.00;1.00;;;;;14.12;100.00;100037.28;2106371;27;46851;-53
2024/03/01 01:09:27;;;;;;;;;2.33;2.00;;;;;14.10;100.00;100040.00;2107595;27;46242;-52
2024/03/01 01:10:28;;;;;;;;;1.00;1.00;;;;;14.11;100.00;100038.22;2107467;27;46447;-55
2024/03/01 01:11:28;;;;;;;;;2.00;2.00;;;;;14.12;100.00;100034.59;2106462;27;46444;-51
2024/03/01 01:12:29;;;;;;;;;1.00;1.00;;;;;14.15;100.00;100042.47;2107349;27;47108;-50
2024/03/01 01:13:29;;;;;;;;;0.00;0.00;;;;;14.14;100.00;100040.72;2108143;27;46452;-55
2024/03/01 01:14:30;;;;;;;;;1.00;1.00;;;;;14.06;100.00;100035.72;2106724;27;46797;-52
2024/03/01 01:15:30;;;;;;;;;1.00;1.00;;;;;14.07;100.00;100034.78;2103357;27;46610;-51
2024/03/01 01:16:31;;;;;;;;;1.00;1.00;;;;;14.07;100.00;100033.94;2106965;27;46764;-53
2024/03/01 01:17:32;;;;;;;;;1.00;1.00;;;;;14.08;100.00;100046.34;2106830;27;47002;-51
2024/03/01 01:18:32;;;;;;;;;1.00;1.00;;;;;14.04;100.00;100042.94;2107373;27;46387;-53
2024/03/01 01:19:32;;;;;;;;;1.00;1.00;;;;;14.01;100.00;100040.44;2106806;27;46234;-53
2024/03/01 01:20:32;;;;;;;;;0.33;0.33;;;;;14.01;100.00;100032.44;2107116;27;46432;-52
2024/03/01 01:21:33;;;;;;;;;0.00;0.00;;;;;13.98;100.00;100040.59;2107267;27;46800;-56
2024/03/01 01:22:33;;;;;;;;;0.00;0.00;;;;;13.93;100.00;100042.59;2106815;27;47203;-57
2024/03/01 01:23:33;;;;;;;;;1.00;1.00;;;;;13.92;100.00;100043.53;2107038;27;46275;-53
2024/03/01 01:24:34;;;;;;;;;0.00;0.00;;;;;13.93;100.00;100042.59;2105463;27;46476;-54
2024/03/01 01:25:34;;;;;;;;;2.67;0.00;;;;;13.94;100.00;100040.78;2106927;27;47260;-56
2024/03/01 01:26:34;;;;;;;;;1.00;1.00;;;;;13.93;100.00;100047.91;2107391;27;46769;-55
2024/03/01 01:27:35;;;;;;;;;1.00;1.00;;;;;13.94;100.00;100054.97;2097220;28;46697;-51
2024/03/01 01:28:35;;;;;;;;;1.00;1.00;;;;;13.89;100.00;100041.00;2097665;28;46779;-54
2024/03/01 01:29:35;;;;;;;;;0.00;0.00;;;;;13.89;100.00;100043.66;2106902;27;46365;-53
2024/03/01 01:30:37;;;;;;;;;0.33;0.33;;;;;13.87;100.00;100050.88;2093195;28;46259;-53
2024/03/01 01:31:37;;;;;;;;;0.00;0.00;;;;;13.85;100.00;100050.09;2091393;28;46824;-55
2024/03/01 01:32:37;;;;;;;;;0.33;0.33;;;;;13.87;100.00;100047.34;2097238;27;46254;-52
2024/03/01 01:33:38;;;;;;;;;0.00;0.00;;;;;13.89;100.00;100045.47;2094330;28;46840;-54
2024/03/01 01:34:38;;;;;;;;;0.00;0.00;;;;;13.88;100.00;100049.94;2094559;28;46473;-54
2024/03/01 01:35:39;;;;;;;;;0.00;0.00;;;;;13.89;100.00;100050.81;2092484;28;46213;-54
2024/03/01 01:36:40;;;;;;;;;0.50;0.50;;;;;13.86;100.00;100062.50;2094188;28;46668;-54
2024/03/01 01:37:40;;;;;;;;;0.00;0.00;;;;;13.84;100.00;100062.53;2094665;28;45571;-54
2024/03/01 01:38:41;;;;;;;;;0.67;0.67;;;;;13.84;100.00;100070.53;2093036;28;46278;-53
2024/03/01 01:39:41;;;;;;;;;1.33;1.00;;;;;13.84;100.00;100070.53;2094031;28;46166;-52
2024/03/01 01:40:42;;;;;;;;;2.00;1.00;;;;;13.85;100.00;100068.75;2094371;28;46498;-53
2024/03/01 01:41:42;;;;;;;;;1.00;1.00;;;;;13.79;100.00;100069.03;2094530;28;47528;-55
2024/03/01 01:42:42;;;;;;;;;0.00;0.00;;;;;13.80;100.00;100079.63;2094221;28;46587;-53
2024/03/01 01:43:43;;;;;;;;;1.00;1.00;;;;;13.78;100.00;100070.81;2074363;28;46303;-55
2024/03/01 01:44:44;;;;;;;;;1.00;1.00;;;;;13.78;100.00;100076.16;2072971;28;46719;-54
2024/03/01 01:45:44;;;;;;;;;0.00;0.00;;;;;13.80;100.00;100073.41;2095580;28;46829;-52
2024/03/01 01:46:49;;;;;;;;;2.00;0.67;;;;;13.79;100.00;100066.34;2096164;28;45691;-53
2024/03/01 01:47:49;;;;;;;;;0.00;0.00;;;;;13.80;100.00;100063.63;2095596;28;46492;-55
2024/03/01 01:48:50;;;;;;;;;1.00;1.00;;;;;13.78;100.00;100061.97;2095979;28;46408;-56
2024/03/01 01:49:50;;;;;;;;;0.00;0.00;;;;;13.82;100.00;100060.88;2095540;28;46903;-55
2024/03/01 01:50:50;;;;;;;;;1.00;1.00;;;;;13.81;100.00;100061.81;2095388;28;46880;-52
2024/03/01 01:51:52;;;;;;;;;0.00;0.00;;;;;13.85;100.00;100063.44;2087097;28;46699;-53
2024/03/01 01:52:54;;;;;;;;;0.00;0.00;;;;;13.86;100.00;100064.28;2086688;28;46506;-53
2024/03/01 01:53:54;;;;;;;;;2.00;1.00;;;;;13.86;100.00;100058.97;2095768;28;46670;-51
2024/03/01 01:54:55;;;;;;;;;2.00;0.00;;;;;13.86;100.00;100059.81;2095470;28;46229;-50
2024/03/01 01:55:55;;;;;;;;;0.00;0.00;;;;;13.88;100.00;100059.75;2095391;28;46789;-55
2024/03/01 01:56:55;;;;;;;;;0.00;0.00;;;;;13.87;100.00;100058.88;2095915;28;46636;-54
2024/03/01 01:57:56;;;;;;;;;2.00;1.00;;;;;13.86;100.00;100057.16;2095661;28;46485;-53
2024/03/01 01:58:57;;;;;;;;;0.00;0.00;;;;;13.85;100.00;100047.41;2095840;28;46222;-52
2024/03/01 01:59:58;;;;;;;;;0.00;0.00;;;;;13.81;100.00;100052.00;2095617;28;46953;-51
2024/03/01 02:00:58;;;;;;;;;0.00;0.00;;;;;13.83;100.00;100051.94;2095421;28;46526;-52
2024/03/01 02:01:59;;;;;;;;;0.00;0.00;;;;;13.82;100.00;100047.53;2094195;28;46104;-53
2024/03/01 02:02:59;;;;;;;;;0.00;0.00;;;;;13.82;100.00;100045.72;2095843;28;46170;-55
2024/03/01 02:03:59;;;;;;;;;0.33;0.33;;;;;13.86;100.00;100046.47;2095823;28;46368;-54
2024/03/01 02:05:00;;;;;;;;;0.00;0.00;;;;;13.90;100.00;100045.41;2095602;28;46360;-53
2024/03/01 02:06:03;;;;;;;;;1.33;0.67;;;;;13.86;100.00;100042.94;2096045;28;46203;-54
2024/03/01 02:07:04;;;;;;;;;0.25;0.25;;;;;13.81;100.00;100046.66;2096147;28;46974;-54
2024/03/01 02:08:04;;;;;;;;;0.00;0.00;;;;;13.82;100.00;100045.72;2095531;28;46367;-53
2024/03/01 02:09:12;;;;;;;;;0.33;0.00;;;;;13.80;100.00;100033.41;2077530;28;46278;-54
2024/03/01 02:10:17;;;;;;;;;0.00;0.00;;;;;13.82;100.00;100037.72;2079180;28;46275;-52
2024/03/01 02:11:18;;;;;;;;;1.00;1.00;;;;;13.83;100.00;100047.47;2095432;28;46703;-54
2024/03/01 02:12:18;;;;;;;;;1.25;0.00;;;;;13.82;100.00;100043.06;2095551;28;46924;-53
2024/03/01 02:13:19;;;;;;;;;0.00;0.00;;;;;13.83;100.00;100039.47;2077388;28;46806;-54
2024/03/01 02:14:20;;;;;;;;;0.25;0.00;;;;;13.82;100.00;100037.72;2077957;28;46610;-54
2024/03/01 02:15:20;;;;;;;;;0.00;0.00;;;;;13.78;100.00;100033.47;2095451;28;46692;-54
2024/03/01 02:16:21;;;;;;;;;0.00;0.00;;;;;13.87;100.00;100026.88;2095317;28;46523;-51
2024/03/01 02:17:21;;;;;;;;;1.00;0.00;;;;;13.94;100.00;100020.31;2096051;28;46591;-55
2024/03/01 02:18:22;;;;;;;;;0.33;0.33;;;;;13.98;100.00;100024.56;2076082;28;46172;-53
2024/03/01 02:19:22;;;;;;;;;0.00;0.00;;;;;14.01;100.00;100023.56;2078226;28;46443;-53
2024/03/01 02:20:25;;;;;;;;;1.00;1.00;;;;;13.98;100.00;100021.91;2095362;28;46165;-55
2024/03/01 02:21:31;;;;;;;;;0.00;0.00;;;;;14.02;100.00;100027.97;2094499;28;46500;-51
2024/03/01 02:22:32;;;;;;;;;0.00;0.00;;;;;14.00;100.00;100019.16;2094421;28;46842;-55
2024/03/01 02:23:33;;;;;;;;;0.00;0.00;;;;;14.02;100.00;100025.28;2095051;28;46825;-53
2024/03/01 02:24:33;;;;;;;;;0.00;0.00;;;;;14.02;100.00;100004.81;2096020;28;46803;-55
2024/03/01 02:25:33;;;;;;;;;0.67;0.33;;;;;14.02;100.00;100004.81;2095283;28;46677;-56
2024/03/01 02:26:34;;;;;;;;;0.00;0.00;;;;;14.03;100.00;100014.53;2095438;28;46823;-54
2024/03/01 02:27:34;;;;;;;;;2.00;1.00;;;;;14.03;100.00;100003.00;2094082;28;46535;-54
2024/03/01 02:28:43;;;;;;;;;0.00;0.00;;;;;14.04;100.00;100002.06;2086465;28;46419;-54
2024/03/01 02:29:43;;;;;;;;;1.00;0.00;;;;;14.03;100.00;100003.88;2087561;28;47894;-56
2024/03/01 02:30:46;;;;;;;;;0.00;0.00;;;;;14.04;100.00;100002.06;2095294;28;46301;-53
2024/03/01 02:31:46;;;;;;;;;0.00;0.00;;;;;14.03;100.00;100001.19;2095728;28;46210;-51
2024/03/01 02:32:47;;;;;;;;;1.00;1.00;;;;;14.02;100.00;99994.13;2093163;28;46691;-54
2024/03/01 02:33:47;;;;;;;;;0.00;0.00;;;;;14.01;100.00;99997.75;2095354;28;46336;-54
2024/03/01 02:34:48;;;;;;;;;1.33;0.00;;;;;13.93;100.00;99991.91;2085115;28;46185;-50
2024/03/01 02:35:48;;;;;;;;;0.00;0.00;;;;;13.94;100.00;99993.63;2085715;28;46665;-52
2024/03/01 02:36:49;;;;;;;;;0.00;0.00;;;;;13.92;100.00;99986.63;2095204;28;47273;-52
2024/03/01 02:37:49;;;;;;;;;0.00;0.00;;;;;13.95;100.00;99989.16;2093854;28;46597;-54
2024/03/01 02:38:49;;;;;;;;;1.00;1.00;;;;;13.94;100.00;99977.63;2095329;28;46307;-54
2024/03/01 02:39:50;;;;;;;;;0.00;0.00;;;;;13.91;100.00;99985.78;2095407;28;46712;-53
2024/03/01 02:40:50;;;;;;;;;1.00;1.00;;;;;13.93;100.00;99985.69;2093496;28;46215;-51
2024/03/01 02:41:50;;;;;;;;;0.00;0.00;;;;;13.89;100.00;99977.00;2094991;28;46203;-52
2024/03/01 02:42:51;;;;;;;;;2.00;0.00;;;;;13.93;100.00;99981.22;2095487;28;46240;-52
2024/03/01 02:43:51;;;;;;;;;1.00;1.00;;;;;13.90;100.00;99975.19;2093950;28;45838;-52
2024/03/01 02:44:52;;;;;;;;;1.00;1.00;;;;;13.93;100.00;99972.38;2094647;28;46294;-51
2024/03/01 02:45:52;;;;;;;;;0.25;0.00;;;;;13.92;100.00;99973.31;2095308;28;46615;-53
2024/03/01 02:46:52;;;;;;;;;1.67;0.67;;;;;13.91;100.00;99976.91;2095050;28;46156;-50
2024/03/01 02:47:53;;;;;;;;;0.00;0.00;;;;;13.86;100.00;99966.47;2093352;28;46328;-50
2024/03/01 02:48:53;;;;;;;;;2.00;0.00;;;;;13.84;100.00;99970.97;2095300;28;46830;-54
2024/03/01 02:49:54;;;;;;;;;0.00;0.00;;;;;13.87;100.00;99967.34;2095127;28;46173;-50
2024/03/01 02:50:54;;;;;;;;;0.00;0.00;;;;;13.82;100.00;99965.72;2095442;28;46557;-53
2024/03/01 02:51:54;;;;;;;;;0.33;0.33;;;;;13.83;100.00;99963.91;2095173;28;47059;-53
2024/03/01 02:52:55;;;;;;;;;0.00;0.00;;;;;13.88;100.00;99971.72;2093240;28;46104;-54
2024/03/01 02:53:55;;;;;;;;;0.00;0.00;;;;;13.90;100.00;99960.03;2095329;28;46377;-55
2024/03/01 02:54:56;;;;;;;;;0.00;0.00;;;;;13.88;100.00;99951.25;2094288;28;46253;-52
2024/03/01 02:55:56;;;;;;;;;0.00;0.00;;;;;13.87;100.00;99957.53;2094923;28;46813;-55
2024/03/01 02:56:57;;;;;;;;;0.67;0.00;;;;;13.89;100.00;99952.97;2093497;28;46219;-53
2024/03/01 02:57:58;;;;;;;;;1.00;1.00;;;;;13.89;100.00;99949.44;2095005;28;46310;-52
2024/03/01 02:58:59;;;;;;;;;0.50;0.50;;;;;13.89;100.00;99946.78;2095746;28;46935;-52
2024/03/01 02:59:59;;;;;;;;;1.00;1.00;;;;;13.88;100.00;99955.72;2095602;28;46388;-55
2024/03/01 03:01:00;;;;;;;;;0.00;0.00;;;;;13.88;100.00;99955.72;2095120;28;46895;-52
2024/03/01 03:02:00;;;;;;;;;0.00;0.00;;;;;13.87;100.00;99954.88;2095381;28;46454;-52
2024/03/01 03:03:00;;;;;;;;;1.00;1.00;;;;;13.78;100.00;99953.47;2095034;28;46533;-52
2024/03/01 03:04:01;;;;;;;;;1.33;0.00;;;;;13.83;100.00;99958.59;2095431;28;46691;-53
2024/03/01 03:05:01;;;;;;;;;0.00;0.00;;;;;13.81;100.00;99956.00;2095289;28;46266;-54
2024/03/01 03:06:01;;;;;;;;;1.00;1.00;;;;;13.81;100.00;99950.66;2095586;28;46188;-49
2024/03/01 03:07:02;;;;;;;;;1.33;0.00;;;;;13.83;100.00;99956.78;2095823;28;45944;-54
2024/03/01 03:08:05;;;;;;;;;0.00;0.00;;;;;13.76;100.00;99949.16;2094663;28;45555;-52
2024/03/01 03:09:09;;;;;;;;;0.25;0.25;;;;;13.83;100.00;99954.13;2094548;28;46769;-53
2024/03/01 03:10:09;;;;;;;;;0.00;0.00;;;;;13.84;100.00;99949.66;2093822;28;46346;-54
2024/03/01 03:11:10;;;;;;;;;0.00;0.00;;;;;13.85;100.00;99962.06;2095125;28;46086;-53
2024/03/01 03:12:11;;;;;;;;;1.00;1.00;;;;;13.85;100.00;99962.06;2095668;28;46704;-54
2024/03/01 03:13:11;;;;;;;;;1.00;1.00;;;;;13.85;100.00;99962.06;2095086;28;46381;-54
2024/03/01 03:14:11;;;;;;;;;1.33;0.00;;;;;13.88;100.00;99961.06;2094418;28;46487;-54
2024/03/01 03:15:13;;;;;;;;;1.33;1.00;;;;;13.86;100.00;99958.47;2068717;28;46289;-52
2024/03/01 03:16:15;;;;;;;;;2.00;0.00;;;;;13.84;100.00;99954.97;2069003;28;46795;-52
2024/03/01 03:17:15;;;;;;;;;1.00;1.00;;;;;13.83;100.00;99963.91;2094638;28;47489;-53
2024/03/01 03:18:16;;;;;;;;;1.00;1.00;;;;;13.81;100.00;99955.13;2073665;28;46649;-53
2024/03/01 03:19:17;;;;;;;;;0.33;0.33;;;;;13.82;100.00;99960.41;2074323;28;44991;-52
2024/03/01 03:20:19;;;;;;;;;2.25;0.00;;;;;13.78;100.00;99961.47;2095353;28;46978;-53
2024/03/01 03:21:19;;;;;;;;;1.00;1.00;;;;;13.76;100.00;99967.84;2095607;28;46356;-52
2024/03/01 03:22:21;;;;;;;;;1.33;0.33;;;;;13.73;100.00;99973.31;2094871;28;46439;-52
2024/03/01 03:23:21;;;;;;;;;0.25;0.25;;;;;13.75;100.00;99966.97;2095559;28;46547;-53
2024/03/01 03:24:21;;;;;;;;;0.67;0.67;;;;;13.75;100.00;99964.31;2095026;28;46625;-55
2024/03/01 03:25:23;;;;;;;;;1.00;1.00;;;;;13.76;100.00;99965.16;2093611;28;45572;-53
2024/03/01 03:26:23;;;;;;;;;1.00;1.00;;;;;13.72;100.00;99963.56;2095364;28;46230;-54
2024/03/01 03:27:24;;;;;;;;;1.67;0.00;;;;;13.75;100.00;99963.44;2095316;28;46551;-55
2024/03/01 03:28:25;;;;;;;;;1.75;1.00;;;;;13.76;100.00;99967.84;2068355;28;46432;-53
2024/03/01 03:29:25;;;;;;;;;1.00;1.00;;;;;13.75;100.00;99966.09;2069087;28;46185;-54
2024/03/01 03:30:25;;;;;;;;;2.00;1.00;;;;;13.74;100.00;99967.91;2094768;28;46336;-54
2024/03/01 03:31:26;;;;;;;;;1.00;0.67;;;;;13.74;100.00;99975.03;2095026;28;46240;-53
2024/03/01 03:32:26;;;;;;;;;1.67;1.67;;;;;13.74;100.00;99972.38;2095148;28;46294;-53
2024/03/01 03:33:27;;;;;;;;;1.00;1.00;;;;;13.72;100.00;99969.78;2095112;28;46513;-52
2024/03/01 03:34:27;;;;;;;;;1.00;1.00;;;;;13.73;100.00;99968.84;2095851;28;47167;-52
2024/03/01 03:35:27;;;;;;;;;1.33;1.00;;;;;13.74;100.00;99975.91;2094873;28;46658;-54
2024/03/01 03:36:27;;;;;;;;;0.00;0.00;;;;;13.74;100.00;99972.38;2095325;28;46369;-53
2024/03/01 03:37:28;;;;;;;;;2.00;2.00;;;;;13.76;100.00;99978.50;2094299;28;46300;-55
2024/03/01 03:38:29;;;;;;;;;1.00;1.00;;;;;13.76;100.00;99974.03;2094777;28;46223;-55
2024/03/01 03:39:29;;;;;;;;;1.00;1.00;;;;;13.73;100.00;99968.84;2086376;28;46300;-55
2024/03/01 03:40:29;;;;;;;;;1.00;1.00;;;;;13.73;100.00;99968.84;2085612;28;46938;-54
2024/03/01 03:41:29;;;;;;;;;1.00;1.00;;;;;13.77;100.00;99966.88;2094909;28;46581;-52
2024/03/01 03:42:30;;;;;;;;;1.67;1.67;;;;;13.75;100.00;99963.44;2093887;28;46048;-54
2024/03/01 03:43:30;;;;;;;;;1.00;1.00;;;;;13.72;100.00;99964.44;2094886;28;46906;-55
2024/03/01 03:44:30;;;;;;;;;1.00;1.00;;;;;13.71;100.00;99964.50;2095448;28;46702;-54
2024/03/01 03:45:31;;;;;;;;;2.00;2.00;;;;;13.74;100.00;99973.25;2095170;28;46723;-51
2024/03/01 03:46:31;;;;;;;;;0.67;0.67;;;;;13.80;100.00;99966.75;2095053;28;46607;-54
2024/03/01 03:47:32;;;;;;;;;2.00;1.00;;;;;13.82;100.00;99973.72;2095067;28;46617;-52
2024/03/01 03:48:33;;;;;;;;;1.00;1.00;;;;;13.82;100.00;99975.53;2094835;28;46379;-52
2024/03/01 03:49:36;;;;;;;;;1.67;1.00;;;;;13.76;100.00;99975.84;2094791;28;46694;-53
2024/03/01 03:50:36;;;;;;;;;0.25;0.25;;;;;13.78;100.00;99972.16;2094782;28;46171;-53
2024/03/01 03:51:37;;;;;;;;;1.67;1.67;;;;;13.79;100.00;99978.34;2095037;28;45649;-51
2024/03/01 03:52:37;;;;;;;;;1.00;1.00;;;;;13.79;100.00;99971.22;2095336;28;46846;-50
2024/03/01 03:53:38;;;;;;;;;0.67;0.67;;;;;13.78;100.00;99980.16;2068947;28;46309;-48
2024/03/01 03:54:38;;;;;;;;;1.00;1.00;;;;;13.79;100.00;99976.53;2068941;28;46719;-53
2024/03/01 03:55:38;;;;;;;;;1.67;1.67;;;;;13.80;100.00;99974.75;2094657;28;46480;-53
2024/03/01 03:56:39;;;;;;;;;2.00;1.00;;;;;13.80;100.00;99988.06;2076748;28;45217;-52
2024/03/01 03:57:39;;;;;;;;;2.00;0.67;;;;;13.80;100.00;99998.75;2075216;28;46335;-50
2024/03/01 03:58:40;;;;;;;;;0.00;0.00;;;;;13.76;100.00;100002.50;2094976;28;46470;-53
2024/03/01 03:59:40;;;;;;;;;0.00;0.00;;;;;13.80;100.00;99998.75;2095133;28;45857;-52
2024/03/01 04:00:40;;;;;;;;;1.00;1.00;;;;;13.80;100.00;99990.75;2094640;28;46715;-52
2024/03/01 04:01:40;;;;;;;;;1.00;1.00;;;;;13.79;100.00;99986.34;2094995;28;46496;-53
2024/03/01 04:02:44;;;;;;;;;1.00;1.00;;;;;13.80;100.00;99978.28;2094463;28;46561;-53
2024/03/01 04:03:44;;;;;;;;;1.25;0.75;;;;;13.76;100.00;99982.03;2094929;28;46650;-53
2024/03/01 04:04:45;;;;;;;;;2.67;1.00;;;;;13.76;100.00;99976.69;2094870;28;47050;-50
2024/03/01 04:05:45;;;;;;;;;2.00;1.00;;;;;13.76;100.00;99974.03;2094458;28;46111;-52
2024/03/01 04:06:45;;;;;;;;;0.33;0.33;;;;;13.76;100.00;99970.50;2094845;28;46854;-52
2024/03/01 04:07:46;;;;;;;;;1.00;1.00;;;;;13.75;100.00;99969.63;2094379;28;46815;-53
2024/03/01 04:08:46;;;;;;;;;0.67;0.67;;;;;13.74;100.00;99970.56;2094893;28;46431;-53
2024/03/01 04:09:46;;;;;;;;;0.67;0.67;;;;;13.72;100.00;99969.78;2094236;28;46291;-53
2024/03/01 04:10:47;;;;;;;;;0.67;0.00;;;;;13.70;100.00;99978.75;2094996;28;46504;-53
2024/03/01 04:11:47;;;;;;;;;0.33;0.33;;;;;13.69;100.00;99979.69;2094716;28;46127;-55
2024/03/01 04:12:48;;;;;;;;;0.33;0.33;;;;;13.69;100.00;99974.38;2085165;28;46344;-53
2024/03/01 04:13:49;;;;;;;;;1.50;1.50;;;;;13.69;100.00;99979.69;2084336;28;45769;-54
2024/03/01 04:14:49;;;;;;;;;1.00;1.00;;;;;13.67;100.00;99974.44;2095135;28;46774;-53
2024/03/01 04:15:49;;;;;;;;;0.00;0.00;;;;;13.68;100.00;99983.31;2095278;28;46639;-53
2024/03/01 04:16:50;;;;;;;;;1.00;1.00;;;;;13.68;100.00;99983.31;2095043;28;46626;-53
2024/03/01 04:17:50;;;;;;;;;0.67;0.67;;;;;13.68;100.00;99986.84;2094588;28;45924;-52
2024/03/01 04:18:50;;;;;;;;;0.67;0.67;;;;;13.68;100.00;99985.97;2094941;28;46633;-53
2024/03/01 04:19:51;;;;;;;;;1.00;1.00;;;;;13.67;100.00;99985.09;2095093;28;46588;-52
2024/03/01 04:20:51;;;;;;;;;1.00;1.00;;;;;13.66;100.00;99980.72;2094480;28;46497;-53
2024/03/01 04:21:54;;;;;;;;;0.67;0.00;;;;;13.66;100.00;99977.19;2094508;28;45475;-54
2024/03/01 04:22:55;;;;;;;;;0.00;0.00;;;;;13.63;100.00;99977.34;2094380;28;47205;-53
2024/03/01 04:23:55;;;;;;;;;1.00;1.00;;;;;13.63;100.00;99972.00;2094638;28;46154;-52
2024/03/01 04:24:55;;;;;;;;;1.00;1.00;;;;;13.64;100.00;99979.06;2094820;28;45459;-53
2024/03/01 04:25:55;;;;;;;;;0.00;0.00;;;;;13.63;100.00;99972.00;2094290;28;46304;-52
2024/03/01 04:26:56;;;;;;;;;0.67;0.00;;;;;13.63;100.00;99970.19;2094849;28;46458;-54
2024/03/01 04:27:56;;;;;;;;;2.33;1.00;;;;;13.63;100.00;99980.88;2094530;28;46769;-55
2024/03/01 04:28:56;;;;;;;;;1.00;1.00;;;;;13.62;100.00;99976.47;2094755;28;46532;-52
2024/03/01 04:29:57;;;;;;;;;2.00;1.00;;;;;13.65;100.00;99976.31;2094625;28;46233;-51
2024/03/01 04:30:57;;;;;;;;;0.00;0.00;;;;;13.64;100.00;99973.72;2093548;28;46704;-55
2024/03/01 04:31:58;;;;;;;;;1.00;1.00;;;;;13.63;100.00;99975.53;2095352;28;46444;-50
2024/03/01 04:32:58;;;;;;;;;1.00;1.00;;;;;13.63;100.00;99986.19;2102919;28;46623;-52
2024/03/01 04:33:58;;;;;;;;;2.33;1.00;;;;;13.62;100.00;99981.81;2102502;28;46357;-53
2024/03/01 04:34:59;;;;;;;;;0.33;0.33;;;;;13.62;100.00;99980.94;2102124;28;48435;-52
2024/03/01 04:35:59;;;;;;;;;1.00;1.00;;;;;13.60;100.00;99977.47;2103115;28;46630;-53
2024/03/01 04:36:59;;;;;;;;;1.00;1.00;;;;;13.61;100.00;99985.41;2102759;28;46432;-54
2024/03/01 04:37:59;;;;;;;;;0.67;0.67;;;;;13.60;100.00;99982.81;2102592;28;46651;-52
2024/03/01 04:39:00;;;;;;;;;0.00;0.00;;;;;13.60;100.00;99986.34;2102147;28;46549;-54
2024/03/01 04:40:00;;;;;;;;;2.00;0.00;;;;;13.59;100.00;99989.06;2102410;28;46483;-53
2024/03/01 04:41:01;;;;;;;;;1.00;1.00;;;;;13.56;100.00;99984.72;2094006;28;45988;-53